sensor_id;sensor_type;location;lat;lon;timestamp;pressure;altitude;pressure_sealevel;temperature;humidity
64095;BME280;50353;51.420;5.682;2023-04-16T00:00:46;101840.66;;;10.04;86.45
64095;BME280;50353;51.420;5.682;2023-04-16T00:03:12;101837.56;;;10.15;86.27
64095;BME280;50353;51.420;5.682;2023-04-16T00:05:38;101845.47;;;9.50;88.44
64095;BME280;50353;51.420;5.682;2023-04-16T00:08:03;101839.31;;;10.16;86.71
64095;BME280;50353;51.420;5.682;2023-04-16T00:10:28;101838.78;;;9.86;86.89
64095;BME280;50353;51.420;5.682;2023-04-16T00:12:54;101838.66;;;9.44;88.64
64095;BME280;50353;51.420;5.682;2023-04-16T00:15:19;101846.34;;;9.05;91.70
64095;BME280;50353;51.420;5.682;2023-04-16T00:17:45;101841.34;;;10.09;86.45
64095;BME280;50353;51.420;5.682;2023-04-16T00:20:10;101838.66;;;9.67;88.00
64095;BME280;50353;51.420;5.682;2023-04-16T00:22:36;101841.00;;;9.52;90.00
64095;BME280;50353;51.420;5.682;2023-04-16T00:25:01;101838.91;;;9.82;87.71
64095;BME280;50353;51.420;5.682;2023-04-16T00:27:26;101841.19;;;9.70;88.73
64095;BME280;50353;51.420;5.682;2023-04-16T00:29:52;101845.94;;;9.16;91.93
64095;BME280;50353;51.420;5.682;2023-04-16T00:32:17;101830.75;;;9.44;90.67
64095;BME280;50353;51.420;5.682;2023-04-16T00:34:42;101841.94;;;9.51;90.77
64095;BME280;50353;51.420;5.682;2023-04-16T00:37:08;101835.59;;;9.77;87.25
64095;BME280;50353;51.420;5.682;2023-04-16T00:39:33;101836.94;;;9.88;88.87
64095;BME280;50353;51.420;5.682;2023-04-16T00:41:59;101841.56;;;9.82;88.68
64095;BME280;50353;51.420;5.682;2023-04-16T00:44:25;101841.41;;;9.86;88.46
64095;BME280;50353;51.420;5.682;2023-04-16T00:46:50;101839.72;;;9.85;88.32
64095;BME280;50353;51.420;5.682;2023-04-16T00:49:15;101841.94;;;9.51;90.54
64095;BME280;50353;51.420;5.682;2023-04-16T00:51:41;101834.50;;;9.61;89.30
64095;BME280;50353;51.420;5.682;2023-04-16T00:54:07;101839.44;;;9.91;87.60
64095;BME280;50353;51.420;5.682;2023-04-16T00:56:34;101842.69;;;9.97;87.74
64095;BME280;50353;51.420;5.682;2023-04-16T00:59:00;101843.84;;;9.47;88.98
64095;BME280;50353;51.420;5.682;2023-04-16T01:01:25;101834.25;;;10.10;88.00
64095;BME280;50353;51.420;5.682;2023-04-16T01:03:50;101836.06;;;10.09;87.54
64095;BME280;50353;51.420;5.682;2023-04-16T01:06:16;101838.00;;;9.84;88.03
64095;BME280;50353;51.420;5.682;2023-04-16T01:08:42;101842.41;;;10.05;87.22
64095;BME280;50353;51.420;5.682;2023-04-16T01:11:09;101840.28;;;10.13;86.47
64095;BME280;50353;51.420;5.682;2023-04-16T01:13:34;101840.94;;;9.98;88.67
64095;BME280;50353;51.420;5.682;2023-04-16T01:16:04;101841.19;;;9.70;89.06
64095;BME280;50353;51.420;5.682;2023-04-16T01:18:30;101842.00;;;9.94;88.90
64095;BME280;50353;51.420;5.682;2023-04-16T01:20:55;101832.34;;;10.13;88.14
64095;BME280;50353;51.420;5.682;2023-04-16T01:23:20;101818.72;;;9.37;92.28
64095;BME280;50353;51.420;5.682;2023-04-16T01:25:46;101827.81;;;9.74;91.36
64095;BME280;50353;51.420;5.682;2023-04-16T01:28:12;101832.88;;;10.01;87.96
64095;BME280;50353;51.420;5.682;2023-04-16T01:30:37;101838.31;;;9.54;92.02
64095;BME280;50353;51.420;5.682;2023-04-16T01:33:02;101839.34;;;9.50;90.50
64095;BME280;50353;51.420;5.682;2023-04-16T01:35:28;101836.22;;;10.05;89.98
64095;BME280;50353;51.420;5.682;2023-04-16T01:37:53;101837.28;;;10.01;89.26
64095;BME280;50353;51.420;5.682;2023-04-16T01:40:19;101836.72;;;9.94;90.37
64095;BME280;50353;51.420;5.682;2023-04-16T01:42:44;101841.81;;;10.19;89.16
64095;BME280;50353;51.420;5.682;2023-04-16T01:45:10;101833.66;;;9.60;92.33
64095;BME280;50353;51.420;5.682;2023-04-16T01:47:35;101838.03;;;10.04;90.44
64095;BME280;50353;51.420;5.682;2023-04-16T01:50:01;101834.25;;;10.10;90.11
64095;BME280;50353;51.420;5.682;2023-04-16T01:52:27;101835.19;;;9.20;94.12
64095;BME280;50353;51.420;5.682;2023-04-16T01:54:52;101840.16;;;9.52;93.84
64095;BME280;50353;51.420;5.682;2023-04-16T01:57:17;101837.69;;;9.69;93.11
64095;BME280;50353;51.420;5.682;2023-04-16T01:59:43;101839.22;;;9.53;93.41
64095;BME280;50353;51.420;5.682;2023-04-16T02:02:11;101842.97;;;9.69;92.80
64095;BME280;50353;51.420;5.682;2023-04-16T02:04:38;101844.41;;;9.78;92.58
64095;BME280;50353;51.420;5.682;2023-04-16T02:07:04;101848.88;;;9.54;94.32
64095;BME280;50353;51.420;5.682;2023-04-16T02:09:29;101836.41;;;9.57;95.31
64095;BME280;50353;51.420;5.682;2023-04-16T02:11:55;101839.25;;;9.75;93.40
64095;BME280;50353;51.420;5.682;2023-04-16T02:14:20;101825.72;;;9.82;93.71
64095;BME280;50353;51.420;5.682;2023-04-16T02:16:49;101831.69;;;10.08;91.14
64095;BME280;50353;51.420;5.682;2023-04-16T02:19:14;101830.09;;;10.04;91.82
64095;BME280;50353;51.420;5.682;2023-04-16T02:21:40;101834.47;;;9.17;95.88
64095;BME280;50353;51.420;5.682;2023-04-16T02:24:05;101828.44;;;9.59;96.53
64095;BME280;50353;51.420;5.682;2023-04-16T02:26:31;101827.25;;;9.44;97.46
64095;BME280;50353;51.420;5.682;2023-04-16T02:28:56;101828.09;;;9.89;94.53
64095;BME280;50353;51.420;5.682;2023-04-16T02:31:21;101827.53;;;10.03;93.54
64095;BME280;50353;51.420;5.682;2023-04-16T02:33:47;101827.19;;;9.68;95.46
64095;BME280;50353;51.420;5.682;2023-04-16T02:36:12;101824.28;;;9.29;97.94
64095;BME280;50353;51.420;5.682;2023-04-16T02:38:38;101827.34;;;9.42;96.90
64095;BME280;50353;51.420;5.682;2023-04-16T02:41:03;101831.00;;;9.38;97.98
64095;BME280;50353;51.420;5.682;2023-04-16T02:43:29;101833.84;;;9.56;98.30
64095;BME280;50353;51.420;5.682;2023-04-16T02:45:54;101833.03;;;9.54;97.03
64095;BME280;50353;51.420;5.682;2023-04-16T02:48:19;101836.66;;;9.51;97.00
64095;BME280;50353;51.420;5.682;2023-04-16T02:50:44;101841.31;;;9.44;99.03
64095;BME280;50353;51.420;5.682;2023-04-16T02:53:10;101845.88;;;9.63;98.41
64095;BME280;50353;51.420;5.682;2023-04-16T02:55:35;101839.47;;;9.24;100.00
64095;BME280;50353;51.420;5.682;2023-04-16T02:58:00;101838.31;;;9.32;100.00
64095;BME280;50353;51.420;5.682;2023-04-16T03:00:26;101835.38;;;9.16;100.00
64095;BME280;50353;51.420;5.682;2023-04-16T03:02:51;101842.91;;;9.03;100.00
64095;BME280;50353;51.420;5.682;2023-04-16T03:05:16;101842.59;;;9.34;100.00
64095;BME280;50353;51.420;5.682;2023-04-16T03:07:42;101844.50;;;9.53;100.00
64095;BME280;50353;51.420;5.682;2023-04-16T03:10:07;101846.22;;;9.54;100.00
64095;BME280;50353;51.420;5.682;2023-04-16T03:12:33;101851.75;;;9.47;100.00
64095;BME280;50353;51.420;5.682;2023-04-16T03:14:59;101848.22;;;9.71;100.00
64095;BME280;50353;51.420;5.682;2023-04-16T03:17:24;101853.72;;;9.42;100.00
64095;BME280;50353;51.420;5.682;2023-04-16T03:19:50;101856.28;;;9.22;100.00
64095;BME280;50353;51.420;5.682;2023-04-16T03:22:15;101859.28;;;9.57;100.00
64095;BME280;50353;51.420;5.682;2023-04-16T03:24:41;101858.03;;;9.45;100.00
64095;BME280;50353;51.420;5.682;2023-04-16T03:27:06;101857.50;;;9.35;100.00
64095;BME280;50353;51.420;5.682;2023-04-16T03:29:31;101861.94;;;9.57;100.00
64095;BME280;50353;51.420;5.682;2023-04-16T03:31:56;101851.31;;;10.03;97.06
64095;BME280;50353;51.420;5.682;2023-04-16T03:34:22;101853.03;;;9.81;99.38
64095;BME280;50353;51.420;5.682;2023-04-16T03:36:47;101860.16;;;10.22;96.50
64095;BME280;50353;51.420;5.682;2023-04-16T03:39:13;101859.66;;;9.92;97.89
64095;BME280;50353;51.420;5.682;2023-04-16T03:41:38;101852.91;;;10.27;95.15
64095;BME280;50353;51.420;5.682;2023-04-16T03:44:03;101861.88;;;10.23;94.86
64095;BME280;50353;51.420;5.682;2023-04-16T03:46:29;101857.72;;;10.18;95.28
64095;BME280;50353;51.420;5.682;2023-04-16T03:48:54;101855.47;;;9.42;99.66
64095;BME280;50353;51.420;5.682;2023-04-16T03:51:19;101849.47;;;9.38;100.00
64095;BME280;50353;51.420;5.682;2023-04-16T03:53:45;101849.34;;;9.41;100.00
64095;BME280;50353;51.420;5.682;2023-04-16T03:56:10;101849.97;;;9.26;100.00
64095;BME280;50353;51.420;5.682;2023-04-16T03:58:35;101857.97;;;9.46;100.00
64095;BME280;50353;51.420;5.682;2023-04-16T04:01:01;101851.56;;;9.30;100.00
64095;BME280;50353;51.420;5.682;2023-04-16T04:03:26;101858.03;;;9.45;100.00
64095;BME280;50353;51.420;5.682;2023-04-16T04:05:51;101859.69;;;9.24;100.00
64095;BME280;50353;51.420;5.682;2023-04-16T04:08:16;101855.34;;;8.99;100.00
64095;BME280;50353;51.420;5.682;2023-04-16T04:10:42;101863.91;;;9.52;100.00
64095;BME280;50353;51.420;5.682;2023-04-16T04:13:07;101856.22;;;9.23;100.00
64095;BME280;50353;51.420;5.682;2023-04-16T04:15:32;101869.56;;;9.64;100.00
64095;BME280;50353;51.420;5.682;2023-04-16T04:17:58;101867.59;;;9.47;100.00
64095;BME280;50353;51.420;5.682;2023-04-16T04:20:23;101868.66;;;9.20;100.00
64095;BME280;50353;51.420;5.682;2023-04-16T04:22:49;101871.00;;;9.27;100.00
64095;BME280;50353;51.420;5.682;2023-04-16T04:25:15;101871.66;;;9.56;100.00
64095;BME280;50353;51.420;5.682;2023-04-16T04:27:40;101875.81;;;9.62;100.00
64095;BME280;50353;51.420;5.682;2023-04-16T04:30:06;101866.19;;;9.15;100.00
64095;BME280;50353;51.420;5.682;2023-04-16T04:32:31;101872.44;;;9.12;100.00
64095;BME280;50353;51.420;5.682;2023-04-16T04:34:59;101872.97;;;9.44;100.00
64095;BME280;50353;51.420;5.682;2023-04-16T04:37:25;101877.34;;;9.45;100.00
64095;BME280;50353;51.420;5.682;2023-04-16T04:39:50;101878.28;;;9.21;100.00
64095;BME280;50353;51.420;5.682;2023-04-16T04:42:16;101883.19;;;9.06;100.00
64095;BME280;50353;51.420;5.682;2023-04-16T04:44:42;101883.25;;;9.05;100.00
64095;BME280;50353;51.420;5.682;2023-04-16T04:47:08;101879.19;;;9.20;100.00
64095;BME280;50353;51.420;5.682;2023-04-16T04:49:33;101888.59;;;9.03;100.00
64095;BME280;50353;51.420;5.682;2023-04-16T04:51:58;101886.41;;;8.91;100.00
64095;BME280;50353;51.420;5.682;2023-04-16T04:54:23;101888.53;;;8.81;100.00
64095;BME280;50353;51.420;5.682;2023-04-16T04:56:49;101887.38;;;9.12;100.00
64095;BME280;50353;51.420;5.682;2023-04-16T04:59:16;101891.25;;;9.03;100.00
64095;BME280;50353;51.420;5.682;2023-04-16T05:01:41;101892.06;;;9.05;100.00
64095;BME280;50353;51.420;5.682;2023-04-16T05:04:07;101893.25;;;8.96;100.00
64095;BME280;50353;51.420;5.682;2023-04-16T05:06:32;101890.84;;;9.14;100.00
64095;BME280;50353;51.420;5.682;2023-04-16T05:08:57;101891.94;;;9.08;100.00
64095;BME280;50353;51.420;5.682;2023-04-16T05:11:23;101899.72;;;9.35;100.00
64095;BME280;50353;51.420;5.682;2023-04-16T05:13:48;101889.28;;;9.32;100.00
64095;BME280;50353;51.420;5.682;2023-04-16T05:16:13;101897.59;;;9.21;100.00
64095;BME280;50353;51.420;5.682;2023-04-16T05:18:39;101899.88;;;8.83;100.00
64095;BME280;50353;51.420;5.682;2023-04-16T05:21:04;101905.38;;;9.26;100.00
64095;BME280;50353;51.420;5.682;2023-04-16T05:23:30;101907.75;;;9.08;100.00
64095;BME280;50353;51.420;5.682;2023-04-16T05:25:55;101907.25;;;9.22;100.00
64095;BME280;50353;51.420;5.682;2023-04-16T05:28:20;101905.72;;;8.91;100.00
64095;BME280;50353;51.420;5.682;2023-04-16T05:30:46;101907.34;;;9.43;100.00
64095;BME280;50353;51.420;5.682;2023-04-16T05:33:11;101907.44;;;9.18;100.00
64095;BME280;50353;51.420;5.682;2023-04-16T05:35:36;101912.25;;;8.81;100.00
64095;BME280;50353;51.420;5.682;2023-04-16T05:38:01;101921.38;;;8.71;100.00
64095;BME280;50353;51.420;5.682;2023-04-16T05:40:28;101916.72;;;9.04;100.00
64095;BME280;50353;51.420;5.682;2023-04-16T05:42:53;101918.25;;;9.34;100.00
64095;BME280;50353;51.420;5.682;2023-04-16T05:45:19;101915.78;;;9.29;100.00
64095;BME280;50353;51.420;5.682;2023-04-16T05:47:44;101919.34;;;9.28;100.00
64095;BME280;50353;51.420;5.682;2023-04-16T05:50:09;101917.16;;;8.92;100.00
64095;BME280;50353;51.420;5.682;2023-04-16T05:52:35;101925.53;;;9.03;100.00
64095;BME280;50353;51.420;5.682;2023-04-16T05:55:00;101915.91;;;9.26;100.00
64095;BME280;50353;51.420;5.682;2023-04-16T05:57:27;101931.31;;;9.13;100.00
64095;BME280;50353;51.420;5.682;2023-04-16T05:59:52;101934.59;;;8.96;100.00
64095;BME280;50353;51.420;5.682;2023-04-16T06:02:18;101930.09;;;8.98;100.00
64095;BME280;50353;51.420;5.682;2023-04-16T06:04:44;101932.63;;;9.01;100.00
64095;BME280;50353;51.420;5.682;2023-04-16T06:07:09;101931.94;;;8.96;100.00
64095;BME280;50353;51.420;5.682;2023-04-16T06:09:34;101941.56;;;8.97;100.00
64095;BME280;50353;51.420;5.682;2023-04-16T06:12:00;101934.31;;;9.27;100.00
64095;BME280;50353;51.420;5.682;2023-04-16T06:14:26;101938.00;;;9.23;100.00
64095;BME280;50353;51.420;5.682;2023-04-16T06:16:51;101938.06;;;9.22;100.00
64095;BME280;50353;51.420;5.682;2023-04-16T06:19:16;101939.78;;;9.46;100.00
64095;BME280;50353;51.420;5.682;2023-04-16T06:21:42;101942.91;;;9.09;100.00
64095;BME280;50353;51.420;5.682;2023-04-16T06:24:07;101947.22;;;9.35;100.00
64095;BME280;50353;51.420;5.682;2023-04-16T06:26:32;101941.59;;;9.21;100.00
64095;BME280;50353;51.420;5.682;2023-04-16T06:28:58;101948.78;;;8.92;100.00
64095;BME280;50353;51.420;5.682;2023-04-16T06:31:23;101953.44;;;9.09;100.00
64095;BME280;50353;51.420;5.682;2023-04-16T06:33:48;101952.97;;;9.46;100.00
64095;BME280;50353;51.420;5.682;2023-04-16T06:36:14;101959.56;;;9.35;100.00
64095;BME280;50353;51.420;5.682;2023-04-16T06:38:41;101963.63;;;9.43;100.00
64095;BME280;50353;51.420;5.682;2023-04-16T06:41:06;101962.75;;;9.67;100.00
64095;BME280;50353;51.420;5.682;2023-04-16T06:43:31;101969.53;;;9.26;100.00
64095;BME280;50353;51.420;5.682;2023-04-16T06:45:58;101973.19;;;9.47;100.00
64095;BME280;50353;51.420;5.682;2023-04-16T06:48:23;101972.03;;;9.55;100.00
64095;BME280;50353;51.420;5.682;2023-04-16T06:50:48;101970.84;;;9.62;100.00
64095;BME280;50353;51.420;5.682;2023-04-16T06:53:14;101982.78;;;9.25;100.00
64095;BME280;50353;51.420;5.682;2023-04-16T06:55:39;101976.47;;;9.29;100.00
64095;BME280;50353;51.420;5.682;2023-04-16T06:58:04;101983.69;;;9.24;100.00
64095;BME280;50353;51.420;5.682;2023-04-16T07:00:30;101976.97;;;9.62;100.00
64095;BME280;50353;51.420;5.682;2023-04-16T07:02:55;101980.53;;;9.38;100.00
64095;BME280;50353;51.420;5.682;2023-04-16T07:05:20;101979.91;;;9.31;100.00
64095;BME280;50353;51.420;5.682;2023-04-16T07:07:46;101985.47;;;9.23;100.00
64095;BME280;50353;51.420;5.682;2023-04-16T07:10:11;101988.94;;;9.00;100.00
64095;BME280;50353;51.420;5.682;2023-04-16T07:12:36;101987.00;;;9.05;100.00
64095;BME280;50353;51.420;5.682;2023-04-16T07:15:02;101990.13;;;9.17;100.00
64095;BME280;50353;51.420;5.682;2023-04-16T07:17:27;101987.44;;;9.42;100.00
64095;BME280;50353;51.420;5.682;2023-04-16T07:19:52;101989.72;;;9.27;100.00
64095;BME280;50353;51.420;5.682;2023-04-16T07:22:18;101991.13;;;9.61;100.00
64095;BME280;50353;51.420;5.682;2023-04-16T07:24:44;102000.09;;;9.32;100.00
64095;BME280;50353;51.420;5.682;2023-04-16T07:27:09;102006.25;;;9.33;100.00
64095;BME280;50353;51.420;5.682;2023-04-16T07:29:35;102001.19;;;9.52;100.00
64095;BME280;50353;51.420;5.682;2023-04-16T07:32:00;102010.44;;;9.38;100.00
64095;BME280;50353;51.420;5.682;2023-04-16T07:34:26;102010.91;;;9.50;100.00
64095;BME280;50353;51.420;5.682;2023-04-16T07:36:51;102012.47;;;9.55;100.00
64095;BME280;50353;51.420;5.682;2023-04-16T07:39:16;102007.28;;;9.76;100.00
64095;BME280;50353;51.420;5.682;2023-04-16T07:41:42;102015.28;;;9.51;100.00
64095;BME280;50353;51.420;5.682;2023-04-16T07:44:08;102015.63;;;9.65;100.00
64095;BME280;50353;51.420;5.682;2023-04-16T07:46:33;102012.81;;;9.70;100.00
64095;BME280;50353;51.420;5.682;2023-04-16T07:48:58;102019.75;;;9.72;100.00
64095;BME280;50353;51.420;5.682;2023-04-16T07:51:24;102024.09;;;9.50;100.00
64095;BME280;50353;51.420;5.682;2023-04-16T07:53:50;102019.53;;;9.78;100.00
64095;BME280;50353;51.420;5.682;2023-04-16T07:56:15;102018.81;;;9.97;100.00
64095;BME280;50353;51.420;5.682;2023-04-16T07:58:40;102037.50;;;9.69;100.00
64095;BME280;50353;51.420;5.682;2023-04-16T08:01:05;102037.94;;;9.33;100.00
64095;BME280;50353;51.420;5.682;2023-04-16T08:03:31;102039.53;;;9.11;100.00
64095;BME280;50353;51.420;5.682;2023-04-16T08:05:57;102037.34;;;9.24;100.00
64095;BME280;50353;51.420;5.682;2023-04-16T08:08:22;102040.78;;;9.26;100.00
64095;BME280;50353;51.420;5.682;2023-04-16T08:10:48;102045.88;;;9.31;100.00
64095;BME280;50353;51.420;5.682;2023-04-16T08:13:13;102050.03;;;9.38;100.00
64095;BME280;50353;51.420;5.682;2023-04-16T08:15:38;102050.94;;;9.37;100.00
64095;BME280;50353;51.420;5.682;2023-04-16T08:18:04;102051.72;;;9.41;100.00
64095;BME280;50353;51.420;5.682;2023-04-16T08:20:37;102052.28;;;9.24;100.00
64095;BME280;50353;51.420;5.682;2023-04-16T08:23:02;102058.09;;;9.34;100.00
64095;BME280;50353;51.420;5.682;2023-04-16T08:25:27;102066.13;;;9.30;100.00
64095;BME280;50353;51.420;5.682;2023-04-16T08:27:53;102066.22;;;9.53;100.00
64095;BME280;50353;51.420;5.682;2023-04-16T08:30:18;102065.56;;;9.46;100.00
64095;BME280;50353;51.420;5.682;2023-04-16T08:32:43;102062.66;;;9.79;100.00
64095;BME280;50353;51.420;5.682;2023-04-16T08:35:09;102062.34;;;9.87;100.00
64095;BME280;50353;51.420;5.682;2023-04-16T08:37:34;102058.34;;;9.76;100.00
64095;BME280;50353;51.420;5.682;2023-04-16T08:39:59;102067.75;;;9.84;100.00
64095;BME280;50353;51.420;5.682;2023-04-16T08:42:53;102067.63;;;9.87;100.00
64095;BME280;50353;51.420;5.682;2023-04-16T08:45:20;102077.16;;;9.67;100.00
64095;BME280;50353;51.420;5.682;2023-04-16T08:47:47;102073.16;;;9.80;100.00
64095;BME280;50353;51.420;5.682;2023-04-16T08:50:13;102077.72;;;9.75;100.00
64095;BME280;50353;51.420;5.682;2023-04-16T08:52:44;102082.69;;;9.85;100.00
64095;BME280;50353;51.420;5.682;2023-04-16T08:55:13;102080.94;;;9.84;100.00
64095;BME280;50353;51.420;5.682;2023-04-16T08:58:00;102088.56;;;9.68;100.00
64095;BME280;50353;51.420;5.682;2023-04-16T09:00:28;102084.16;;;9.92;100.00
64095;BME280;50353;51.420;5.682;2023-04-16T09:02:55;102086.13;;;9.87;100.00
64095;BME280;50353;51.420;5.682;2023-04-16T09:05:20;102081.13;;;10.03;100.00
64095;BME280;50353;51.420;5.682;2023-04-16T09:07:51;102091.72;;;9.77;100.00
64095;BME280;50353;51.420;5.682;2023-04-16T09:10:17;102084.16;;;9.92;100.00
64095;BME280;50353;51.420;5.682;2023-04-16T09:12:43;102086.34;;;10.04;100.00
64095;BME280;50353;51.420;5.682;2023-04-16T09:15:09;102085.09;;;10.14;100.00
64095;BME280;50353;51.420;5.682;2023-04-16T09:17:35;102096.75;;;9.85;100.00
64095;BME280;50353;51.420;5.682;2023-04-16T09:20:01;102090.78;;;10.04;100.00
64095;BME280;50353;51.420;5.682;2023-04-16T09:22:27;102088.56;;;10.39;100.00
64095;BME280;50353;51.420;5.682;2023-04-16T09:24:52;102094.72;;;10.15;100.00
64095;BME280;50353;51.420;5.682;2023-04-16T09:27:17;102094.69;;;10.17;100.00
64095;BME280;50353;51.420;5.682;2023-04-16T09:29:43;102106.22;;;10.14;100.00
64095;BME280;50353;51.420;5.682;2023-04-16T09:32:10;102100.41;;;10.05;100.00
64095;BME280;50353;51.420;5.682;2023-04-16T09:35:02;102107.41;;;10.06;100.00
64095;BME280;50353;51.420;5.682;2023-04-16T09:37:29;102105.88;;;10.00;100.00
64095;BME280;50353;51.420;5.682;2023-04-16T09:39:58;102103.94;;;10.05;100.00
64095;BME280;50353;51.420;5.682;2023-04-16T09:42:29;102107.47;;;10.52;100.00
64095;BME280;50353;51.420;5.682;2023-04-16T09:44:56;102106.03;;;10.43;100.00
64095;BME280;50353;51.420;5.682;2023-04-16T09:47:22;102114.84;;;10.43;100.00
64095;BME280;50353;51.420;5.682;2023-04-16T09:49:48;102112.81;;;10.50;100.00
64095;BME280;50353;51.420;5.682;2023-04-16T09:52:21;102105.78;;;10.93;100.00
64095;BME280;50353;51.420;5.682;2023-04-16T09:57:14;102108.00;;;10.82;100.00
64095;BME280;50353;51.420;5.682;2023-04-16T09:59:40;102109.63;;;11.07;100.00
64095;BME280;50353;51.420;5.682;2023-04-16T10:02:07;102103.59;;;10.82;100.00
64095;BME280;50353;51.420;5.682;2023-04-16T10:04:47;102112.31;;;10.85;100.00
64095;BME280;50353;51.420;5.682;2023-04-16T10:07:13;102108.81;;;10.84;100.00
64095;BME280;50353;51.420;5.682;2023-04-16T10:09:39;102112.34;;;11.05;100.00
64095;BME280;50353;51.420;5.682;2023-04-16T10:12:06;102114.16;;;11.05;100.00
64095;BME280;50353;51.420;5.682;2023-04-16T10:14:31;102117.94;;;11.20;100.00
64095;BME280;50353;51.420;5.682;2023-04-16T10:16:58;102115.88;;;11.06;100.00
64095;BME280;50353;51.420;5.682;2023-04-16T10:19:24;102117.47;;;11.10;100.00
64095;BME280;50353;51.420;5.682;2023-04-16T10:21:49;102119.38;;;11.27;100.00
64095;BME280;50353;51.420;5.682;2023-04-16T10:24:16;102120.72;;;11.37;100.00
64095;BME280;50353;51.420;5.682;2023-04-16T10:26:42;102117.66;;;11.46;99.99
64095;BME280;50353;51.420;5.682;2023-04-16T10:29:08;102118.19;;;11.55;100.00
64095;BME280;50353;51.420;5.682;2023-04-16T10:31:35;102124.75;;;11.46;99.57
64095;BME280;50353;51.420;5.682;2023-04-16T10:34:02;102121.19;;;11.47;98.60
64095;BME280;50353;51.420;5.682;2023-04-16T10:36:28;102127.72;;;11.18;100.00
64095;BME280;50353;51.420;5.682;2023-04-16T10:38:58;102129.16;;;11.04;100.00
64095;BME280;50353;51.420;5.682;2023-04-16T10:41:25;102128.84;;;11.32;100.00
64095;BME280;50353;51.420;5.682;2023-04-16T10:43:51;102127.53;;;11.63;97.53
64095;BME280;50353;51.420;5.682;2023-04-16T10:46:25;102124.16;;;11.60;97.34
64095;BME280;50353;51.420;5.682;2023-04-16T10:48:54;102121.75;;;11.95;95.76
64095;BME280;50353;51.420;5.682;2023-04-16T10:51:24;102125.44;;;11.91;94.44
64095;BME280;50353;51.420;5.682;2023-04-16T10:53:53;102119.66;;;11.62;95.94
64095;BME280;50353;51.420;5.682;2023-04-16T10:56:24;102123.09;;;11.43;96.87
64095;BME280;50353;51.420;5.682;2023-04-16T10:58:52;102123.91;;;11.66;95.88
64095;BME280;50353;51.420;5.682;2023-04-16T11:01:17;102120.84;;;11.96;94.32
64095;BME280;50353;51.420;5.682;2023-04-16T11:03:46;102122.03;;;11.68;95.52
64095;BME280;50353;51.420;5.682;2023-04-16T11:08:38;102115.97;;;12.25;91.17
64095;BME280;50353;51.420;5.682;2023-04-16T11:11:05;102124.09;;;12.01;93.59
64095;BME280;50353;51.420;5.682;2023-04-16T11:13:30;102129.38;;;12.03;93.99
64095;BME280;50353;51.420;5.682;2023-04-16T11:16:00;102117.69;;;12.26;91.48
64095;BME280;50353;51.420;5.682;2023-04-16T11:18:26;102122.19;;;12.24;91.67
64095;BME280;50353;51.420;5.682;2023-04-16T11:20:51;102117.31;;;12.14;92.99
64095;BME280;50353;51.420;5.682;2023-04-16T11:23:16;102110.66;;;12.25;93.16
64095;BME280;50353;51.420;5.682;2023-04-16T11:25:42;102125.66;;;12.26;92.02
64095;BME280;50353;51.420;5.682;2023-04-16T11:28:07;102117.63;;;12.08;91.91
64095;BME280;50353;51.420;5.682;2023-04-16T11:30:34;102120.47;;;12.23;90.64
64095;BME280;50353;51.420;5.682;2023-04-16T11:33:03;102117.31;;;12.14;91.10
64095;BME280;50353;51.420;5.682;2023-04-16T11:35:29;102115.91;;;12.26;91.39
64095;BME280;50353;51.420;5.682;2023-04-16T11:37:55;102114.09;;;12.46;91.09
64095;BME280;50353;51.420;5.682;2023-04-16T11:40:21;102120.47;;;12.23;89.41
64095;BME280;50353;51.420;5.682;2023-04-16T11:42:46;102116.47;;;12.33;90.05
64095;BME280;50353;51.420;5.682;2023-04-16T11:45:11;102122.19;;;12.24;92.69
64095;BME280;50353;51.420;5.682;2023-04-16T11:47:50;102124.34;;;12.34;90.78
64095;BME280;50353;51.420;5.682;2023-04-16T11:50:26;102121.47;;;12.39;90.14
64095;BME280;50353;51.420;5.682;2023-04-16T11:52:53;102126.31;;;12.67;88.97
64095;BME280;50353;51.420;5.682;2023-04-16T11:55:19;102122.75;;;12.68;87.32
64095;BME280;50353;51.420;5.682;2023-04-16T11:57:45;102115.22;;;12.96;87.58
64095;BME280;50353;51.420;5.682;2023-04-16T12:00:11;102120.06;;;13.05;85.56
64095;BME280;50353;51.420;5.682;2023-04-16T12:02:51;102127.72;;;13.11;85.60
64095;BME280;50353;51.420;5.682;2023-04-16T12:05:36;102134.59;;;13.33;84.97
64095;BME280;50353;51.420;5.682;2023-04-16T12:08:11;102132.88;;;13.67;81.11
64095;BME280;50353;51.420;5.682;2023-04-16T12:10:54;102130.28;;;12.95;84.28
64095;BME280;50353;51.420;5.682;2023-04-16T12:13:20;102133.59;;;12.81;84.47
64095;BME280;50353;51.420;5.682;2023-04-16T12:15:55;102134.25;;;12.87;85.49
64095;BME280;50353;51.420;5.682;2023-04-16T12:18:22;102138.19;;;13.14;85.15
64095;BME280;50353;51.420;5.682;2023-04-16T12:20:49;102137.84;;;13.03;84.78
64095;BME280;50353;51.420;5.682;2023-04-16T12:23:25;102137.72;;;13.06;83.56
64095;BME280;50353;51.420;5.682;2023-04-16T12:25:51;102142.41;;;13.18;83.21
64095;BME280;50353;51.420;5.682;2023-04-16T12:28:31;102140.78;;;13.16;84.62
64095;BME280;50353;51.420;5.682;2023-04-16T12:30:57;102135.69;;;13.11;84.75
64095;BME280;50353;51.420;5.682;2023-04-16T12:33:22;102143.44;;;13.51;83.19
64095;BME280;50353;51.420;5.682;2023-04-16T12:35:47;102136.19;;;13.37;81.88
64095;BME280;50353;51.420;5.682;2023-04-16T12:38:13;102135.22;;;13.73;81.62
64095;BME280;50353;51.420;5.682;2023-04-16T12:40:39;102135.25;;;13.89;84.27
64095;BME280;50353;51.420;5.682;2023-04-16T12:43:05;102152.34;;;14.01;83.06
64095;BME280;50353;51.420;5.682;2023-04-16T12:45:30;102145.78;;;13.57;82.61
64095;BME280;50353;51.420;5.682;2023-04-16T12:47:55;102143.56;;;12.95;84.24
64095;BME280;50353;51.420;5.682;2023-04-16T12:50:21;102139.28;;;13.10;83.98